Thunder radar more information blitzortung!


avis per Pluja more information rain snow radar


Visita la nostra xarxa de llocs de meteo:

Template documentation
and downloads

And another site



Rain From: 18-10-2018 10:00 Until: 16:59 warning for: Rain Level: Yellow info button

Pagina Historial Weather Underground text

Diari Resum May 4, 2016 Unitats:  Mètric    Imperial   Tant
« Previous Dia
SegĂźent Dia »
Diari Setmana Mensual Anual Personalitzada
  Maxima: Minima: Media:
Temperatura: -17.8 °C -12.7 °C -7.6 °C
Punt de rosada: -17.8 °C -15.6 °C -14.3 °C
Humitat: Humidity % 29 % 48 %
Wind Speed: 0 km/h 0 km/h 13.2 km/h
RĂ fegues de vent: 0 km/h - -
Vent:- - SSW
Pression baro: 0 hPa 34462.7 hPa -
Precipitacions: 0 mm    
Historical Graphs
 
 
Dades de taula per May 4, 2016
Temps Temperatura Punt de rosada Pression baro Vent Wind Speed RĂ fegues de vent Humitat Rainfall Rate (Hourly)
-17.8 °C -17.8 °C 0 hPa Calm     Humidity % 0 mm
00:04 -10.3 °C -12.9 °C 34635.4 hPa NE 6.8 km/h 6.8 km/h 74 % 0 mm
00:05 -12.3 °C -14.1 °C 34601.5 hPa Calm     80 % 0 mm
00:15 -12.4 °C -14.3 °C 34601.5 hPa Calm   5.1 km/h 79 % 0 mm
00:25 -12.4 °C -14.4 °C 34601.5 hPa WSW 5.1 km/h 5.1 km/h 79 % 0 mm
00:35 -12.4 °C -14.3 °C 34601.5 hPa Calm   5.1 km/h 80 % 0 mm
00:45 -12.4 °C -14.1 °C 34601.5 hPa Calm     82 % 0 mm
00:55 -12.5 °C -14 °C 34601.5 hPa Calm     83 % 0 mm
01:05 -12.5 °C -14 °C 34601.5 hPa Calm     83 % 0 mm
01:15 -12.4 °C -14 °C 34601.5 hPa Calm   5.1 km/h 83 % 0 mm
01:25 -12.4 °C -14.1 °C 34601.5 hPa Calm   2.6 km/h 82 % 0 mm
01:35 -12.5 °C -14.1 °C 34601.5 hPa Calm   2.6 km/h 82 % 0 mm
01:45 -12.6 °C -14.3 °C 34601.5 hPa Calm   2.6 km/h 81 % 0 mm
01:55 -12.7 °C -14.4 °C 34601.5 hPa WSW 2.6 km/h 2.6 km/h 81 % 0 mm
02:05 -12.6 °C -14.2 °C 34601.5 hPa Calm   5.1 km/h 82 % 0 mm
02:15 -12.5 °C -14.1 °C 34601.5 hPa Calm   5.1 km/h 82 % 0 mm
02:25 -12.3 °C -13.8 °C 34601.5 hPa Calm   5.1 km/h 83 % 0 mm
02:35 -12.2 °C -13.8 °C 34601.5 hPa Calm   5.1 km/h 82 % 0 mm
02:45 -12.2 °C -14.1 °C 34601.5 hPa NE 5.1 km/h 5.1 km/h 80 % 0 mm
02:55 -12.2 °C -14 °C 34601.5 hPa SW 2.6 km/h 5.1 km/h 80 % 0 mm
03:05 -12 °C -13.8 °C 34601.5 hPa Calm   2.6 km/h 80 % 0 mm
03:15 -11.8 °C -13.8 °C 34635.4 hPa SW 2.6 km/h 5.1 km/h 79 % 0 mm
03:25 -11.3 °C -13.1 °C 34635.4 hPa SSW 5.1 km/h 5.1 km/h 80 % 0 mm
03:35 -11.1 °C -13 °C 34635.4 hPa ENE 5.1 km/h 5.1 km/h 79 % 0 mm
03:45 -10.9 °C -13.1 °C 34601.5 hPa Calm   7.7 km/h 77 % 0 mm
03:55 -10.5 °C -12.8 °C 34601.5 hPa NE 5.1 km/h 5.1 km/h 76 % 0 mm
04:05 -10.3 °C -12.7 °C 34601.5 hPa ENE 2.6 km/h 7.7 km/h 75 % 0 mm
04:15 -9.9 °C -12.4 °C 34635.4 hPa East 2.6 km/h 7.7 km/h 74 % 0 mm
04:25 -9.6 °C -12.3 °C 34601.5 hPa East 2.6 km/h 5.1 km/h 73 % 0 mm
04:35 -9.5 °C -12.4 °C 34601.5 hPa ESE 2.6 km/h 5.1 km/h 71 % 0 mm
04:45 -9.3 °C -12.2 °C 34601.5 hPa South 2.6 km/h 5.1 km/h 71 % 0 mm
04:55 -8.9 °C -12.2 °C 34601.5 hPa SSW 5.1 km/h 5.1 km/h 68 % 0 mm
05:05 -8.6 °C -12.2 °C 34601.5 hPa East 2.6 km/h 7.7 km/h 65 % 0 mm
05:10 -8.6 °C -12.3 °C 34601.5 hPa East 2.6 km/h 7.7 km/h 64 % 0 mm
10:14 -8.4 °C -12.3 °C 34601.5 hPa ENE 9 km/h 9 km/h 64 % 0 mm
10:19 -8.2 °C -12.1 °C 34601.5 hPa ENE 9 km/h 9 km/h 63 % 0 mm
10:24 -8.1 °C -12.2 °C 34601.5 hPa NE 10.3 km/h 10.3 km/h 62 % 0 mm
10:29 -8.1 °C -12.3 °C 34601.5 hPa SE 9 km/h 9 km/h 61 % 0 mm
10:34 -7.9 °C -12.3 °C 34601.5 hPa East 9 km/h 9 km/h 60 % 0 mm
10:44 -7.7 °C -12.6 °C 34601.5 hPa NE 9 km/h 9 km/h 57 % 0 mm
10:49 -7.7 °C -12.6 °C 34601.5 hPa East 6.3 km/h 6.3 km/h 56 % 0 mm
10:54 -7.5 °C -12.4 °C 34601.5 hPa NE 6 km/h 6 km/h 56 % 0 mm
10:59 -7.3 °C -12.4 °C 34601.5 hPa East 9 km/h 9 km/h 55 % 0 mm
11:04 -7.2 °C -12.7 °C 34601.5 hPa SSE 3.7 km/h   53 % 0 mm
11:09 -6.8 °C -12.3 °C 34601.5 hPa SW 6 km/h 6 km/h 53 % 0 mm
11:14 -6.6 °C -12.4 °C 34601.5 hPa SW 15 km/h 15 km/h 51 % 0 mm
11:19 -6.6 °C -12.9 °C 34601.5 hPa WNW 11.9 km/h 11.9 km/h 48 % 0 mm
11:24 -6.3 °C -12.5 °C 34601.5 hPa SW 3.7 km/h   49 % 0 mm
11:29 -6.2 °C -12.7 °C 34601.5 hPa SW 6 km/h 6.3 km/h 47 % 0 mm
11:34 -6.1 °C -13 °C 34601.5 hPa SSW 15 km/h 15 km/h 45 % 0 mm
11:39 -6.3 °C -13.8 °C 34601.5 hPa SW 11.9 km/h 11.9 km/h 42 % 0 mm
11:44 -6.3 °C -13.9 °C 34601.5 hPa SSW 11.9 km/h 11.9 km/h 41 % 0 mm
11:49 -6 °C -13.7 °C 34601.5 hPa SSE 9.8 km/h 9.8 km/h 41 % 0 mm
11:54 -6.1 °C -14.1 °C 34567.7 hPa SSW 20.9 km/h 20.9 km/h 39 % 0 mm
11:59 -6.1 °C -14.2 °C 34567.7 hPa SW 15 km/h 15 km/h 39 % 0 mm
12:09 -6 °C -14.3 °C 34601.5 hPa SSW 11.9 km/h 11.9 km/h 38 % 0 mm
12:19 -5.7 °C -14.5 °C 34601.5 hPa SSW 9.3 km/h 9.3 km/h 36 % 0 mm
12:24 -5.6 °C -13.9 °C 34601.5 hPa WSW 9.3 km/h 9.3 km/h 38 % 0 mm
12:29 -5.6 °C -14.8 °C 34601.5 hPa SW 17.9 km/h 17.9 km/h 34 % 0 mm
12:34 -5.5 °C -14.9 °C 34601.5 hPa NW 17.9 km/h 17.9 km/h 33 % 0 mm
12:39 -5.3 °C -14.1 °C 34567.7 hPa SW 6 km/h 6 km/h 36 % 0 mm
12:44 -5.2 °C -14.4 °C 34567.7 hPa SW 11.9 km/h 11.9 km/h 34 % 0 mm
12:49 -5 °C -14.3 °C 34567.7 hPa SW 9 km/h 9 km/h 34 % 0 mm
12:54 -4.7 °C -14 °C 34567.7 hPa SSW 16.1 km/h 16.1 km/h 34 % 0 mm
12:59 -4.9 °C -14.7 °C 34567.7 hPa WSW 20.9 km/h 20.9 km/h 32 % 0 mm
13:04 -4.9 °C -14.9 °C 34567.7 hPa WSW 20.9 km/h 20.9 km/h 31 % 0 mm
13:09 -4.8 °C -14.6 °C 34533.8 hPa SW 11.9 km/h 11.9 km/h 32 % 0 mm
13:14 -4.8 °C -14.9 °C 34533.8 hPa SW 20.9 km/h 20.9 km/h 31 % 0 mm
13:19 -4.8 °C -14.9 °C 34533.8 hPa WSW 20.9 km/h 20.9 km/h 31 % 0 mm
13:24 -4.9 °C -15.2 °C 34533.8 hPa SSW 20.9 km/h 20.9 km/h 30 % 0 mm
13:29 -4.8 °C -14.8 °C 34533.8 hPa SW 9 km/h 9.3 km/h 31 % 0 mm
13:34 -4.6 °C -14.7 °C 34533.8 hPa South 9 km/h 9.8 km/h 31 % 0 mm
13:39 -4.9 °C -15.2 °C 34496.6 hPa SSW 26.9 km/h 26.9 km/h 30 % 0 mm
13:44 -4.7 °C -15.1 °C 34496.6 hPa SSE 26.9 km/h 26.9 km/h 30 % 0 mm
13:50 -4.6 °C -14.7 °C 34496.6 hPa SSW 15 km/h 15 km/h 31 % 0 mm
13:55 -4.7 °C -15 °C 34533.8 hPa SSW 17.9 km/h 17.9 km/h 30 % 0 mm
14:00 -4.6 °C -14.9 °C 34533.8 hPa SSW 20.9 km/h 20.9 km/h 30 % 0 mm
14:05 -4.6 °C -14.9 °C 34533.8 hPa WSW 15 km/h 15 km/h 30 % 0 mm
14:10 -4.6 °C -14.9 °C 34533.8 hPa WSW 15 km/h 15 km/h 30 % 0 mm
14:15 -4.8 °C -15.1 °C 34533.8 hPa SW 15 km/h 15 km/h 30 % 0 mm
14:20 -4.8 °C -15.1 °C 34533.8 hPa WNW 15 km/h 15 km/h 30 % 0 mm
14:25 -4.4 °C -14.8 °C 34533.8 hPa SSW 23.8 km/h 23.8 km/h 30 % 0 mm
14:30 -4.6 °C -14.9 °C 34533.8 hPa WSW 15 km/h 15 km/h 30 % 0 mm
14:35 -4.7 °C -15 °C 34533.8 hPa WSW 23.8 km/h 23.8 km/h 30 % 0 mm
14:40 -4.7 °C -15 °C 34533.8 hPa WSW 26.9 km/h 26.9 km/h 30 % 0 mm
14:45 -4.6 °C -14.9 °C 34533.8 hPa ESE 17.9 km/h 17.9 km/h 30 % 0 mm
14:50 -4.6 °C -14.9 °C 34533.8 hPa SSE 23.8 km/h 23.8 km/h 30 % 0 mm
14:55 -4.6 °C -14.9 °C 34533.8 hPa ESE 17.9 km/h 17.9 km/h 30 % 0 mm
15:00 -4.5 °C -14.8 °C 34533.8 hPa SE 20.9 km/h 20.9 km/h 30 % 0 mm
15:05 -4.3 °C -14.9 °C 34533.8 hPa SSW 20.9 km/h 20.9 km/h 29 % 0 mm
15:10 -4.6 °C -15.2 °C 34533.8 hPa WSW 20.9 km/h 20.9 km/h 29 % 0 mm
15:15 -4.6 °C -15.2 °C 34533.8 hPa WSW 23.8 km/h 23.8 km/h 29 % 0 mm
15:20 -4.7 °C -15.3 °C 34533.8 hPa SW 26.9 km/h 26.9 km/h 29 % 0 mm
15:25 -4.6 °C -15.2 °C 34533.8 hPa WSW 23.8 km/h 23.8 km/h 29 % 0 mm
15:30 -4.8 °C -15.4 °C 34533.8 hPa SSW 23.8 km/h 23.8 km/h 29 % 0 mm
15:35 -4.6 °C -15.2 °C 34533.8 hPa SW 20.9 km/h 20.9 km/h 29 % 0 mm
15:40 -4.6 °C -14.9 °C 34496.6 hPa West 15 km/h 15 km/h 30 % 0 mm
15:45 -4.8 °C -15.4 °C 34496.6 hPa SW 26.4 km/h 26.4 km/h 29 % 0 mm
15:50 -4.8 °C -15.4 °C 34496.6 hPa SSW 23.8 km/h 23.8 km/h 29 % 0 mm
15:55 -4.7 °C -15.3 °C 34496.6 hPa SW 20.9 km/h 20.9 km/h 29 % 0 mm
16:00 -4.7 °C -15.3 °C 34496.6 hPa SW 35.7 km/h 35.7 km/h 29 % 0 mm
16:05 -4.8 °C -15.4 °C 34496.6 hPa SW 17.9 km/h 17.9 km/h 29 % 0 mm
16:10 -4.8 °C -15.4 °C 34496.6 hPa SSW 26.9 km/h 26.9 km/h 29 % 0 mm
16:15 -4.8 °C -15.4 °C 34496.6 hPa WSW 20.9 km/h 20.9 km/h 29 % 0 mm
16:20 -4.7 °C -15.3 °C 34496.6 hPa SW 23.8 km/h 23.8 km/h 29 % 0 mm
16:25 -4.9 °C -15.5 °C 34496.6 hPa West 32.8 km/h 32.8 km/h 29 % 0 mm
16:30 -4.9 °C -15.2 °C 34496.6 hPa WSW 44.7 km/h 44.7 km/h 30 % 0 mm
16:35 -5 °C -15.6 °C 34496.6 hPa SW 24.3 km/h 24.3 km/h 29 % 0 mm
16:40 -4.9 °C -15.2 °C 34496.6 hPa WSW 23.8 km/h 23.8 km/h 30 % 0 mm
16:45 -5 °C -15.3 °C 34496.6 hPa SW 26.9 km/h 26.9 km/h 30 % 0 mm
16:50 -4.9 °C -15.2 °C 34496.6 hPa SW 26.9 km/h 26.9 km/h 30 % 0 mm
16:55 -5.1 °C -15.1 °C 34496.6 hPa WSW 26.9 km/h 26.9 km/h 31 % 0 mm
17:00 -5.1 °C -15.1 °C 34496.6 hPa WSW 26.9 km/h 26.9 km/h 31 % 0 mm
17:05 -5.2 °C -15.2 °C 34496.6 hPa SW 29.8 km/h 29.8 km/h 31 % 0 mm
17:10 -5.3 °C -15.3 °C 34496.6 hPa SW 32.8 km/h 32.8 km/h 31 % 0 mm
17:15 -5.5 °C -15.4 °C 34496.6 hPa SW 26.9 km/h 26.9 km/h 31 % 0 mm
17:20 -5.5 °C -15.4 °C 34496.6 hPa SW 23.8 km/h 23.8 km/h 31 % 0 mm
17:25 -5.6 °C -15.5 °C 34462.7 hPa WSW 26.9 km/h 26.9 km/h 31 % 0 mm
17:30 -5.3 °C -15.3 °C 34462.7 hPa WSW 20.9 km/h 20.9 km/h 31 % 0 mm
17:35 -5.3 °C -15.3 °C 34462.7 hPa SW 26.9 km/h 26.9 km/h 31 % 0 mm
17:45 -5.4 °C -15.4 °C 34496.6 hPa SW 20.9 km/h 20.9 km/h 31 % 0 mm
17:50 -5.6 °C -15.6 °C 34496.6 hPa SW 29.8 km/h 29.8 km/h 31 % 0 mm
17:55 -5.3 °C -15.3 °C 34496.6 hPa SW 17.9 km/h 17.9 km/h 31 % 0 mm
18:00 -5.6 °C -15.5 °C 34496.6 hPa SW 25.4 km/h 25.4 km/h 31 % 0 mm
18:05 -5.6 °C -15.6 °C 34496.6 hPa SW 15 km/h 15 km/h 31 % 0 mm
18:10 -5.4 °C -15.1 °C 34496.6 hPa SW 20.3 km/h 20.3 km/h 32 % 0 mm
18:15 -5.6 °C -15.6 °C 34496.6 hPa SW 15.6 km/h 31.1 km/h 31 % 0 mm
18:20 -5.7 °C -15.3 °C 34496.6 hPa SSW 11.9 km/h 12.7 km/h 32 % 0 mm
18:25 -5.5 °C -15.2 °C 34486.4 hPa SW 12.9 km/h 23.3 km/h 32 % 0 mm
18:30 -5.6 °C -15.1 °C 34462.7 hPa SSW 12.9 km/h 20.8 km/h 33 % 0 mm
18:35 -5.8 °C -15.2 °C 34462.7 hPa WSW 20.9 km/h 20.9 km/h 33 % 0 mm
18:40 -6.1 °C -15.4 °C 34496.6 hPa SSW 20.9 km/h 20.9 km/h 33 % 0 mm
18:45 -6.1 °C -15.1 °C 34496.6 hPa SW 23.8 km/h 23.8 km/h 35 % 0 mm
18:50 -6.1 °C -15.1 °C 34496.6 hPa SSW 17.9 km/h 17.9 km/h 35 % 0 mm
18:55 -6.3 °C -14.9 °C 34496.6 hPa SW 32.8 km/h 32.8 km/h 36 % 0 mm
19:00 -6.3 °C -14.9 °C 34496.6 hPa WSW 19.6 km/h 19.6 km/h 36 % 0 mm
19:05 -6.4 °C -14.9 °C 34496.6 hPa SSW 23.8 km/h 23.8 km/h 37 % 0 mm
19:10 -6.6 °C -15.1 °C 34496.6 hPa WSW 23.8 km/h 23.8 km/h 37 % 0 mm
19:15 -6.6 °C -14.8 °C 34496.6 hPa SSW 23.8 km/h 23.8 km/h 38 % 0 mm
19:20 -6.8 °C -14.8 °C 34496.6 hPa SW 26.9 km/h 26.9 km/h 39 % 0 mm
19:25 -6.9 °C -14.7 °C 34496.6 hPa SW 23.8 km/h 23.8 km/h 40 % 0 mm
19:30 -6.9 °C -14.7 °C 34496.6 hPa SW 20.9 km/h 20.9 km/h 40 % 0 mm
19:35 -7 °C -14.6 °C 34496.6 hPa SW 19.2 km/h 19.2 km/h 41 % 0 mm
19:40 -7.2 °C -14.6 °C 34496.6 hPa SSW 20.9 km/h 20.9 km/h 42 % 0 mm
19:45 -7.2 °C -14.6 °C 34496.6 hPa SW 22 km/h 22 km/h 42 % 0 mm
19:50 -7.3 °C -14.3 °C 34496.6 hPa SW 23.8 km/h 23.8 km/h 44 % 0 mm
19:55 -7.4 °C -14.2 °C 34496.6 hPa SSW 15 km/h 15 km/h 45 % 0 mm
20:00 -7.4 °C -14.2 °C 34496.6 hPa SW 22 km/h 22 km/h 45 % 0 mm
20:05 -7.6 °C -14.3 °C 34496.6 hPa SW 26.9 km/h 26.9 km/h 45 % 0 mm
20:10 -7.7 °C -14.2 °C 34496.6 hPa SW 15.6 km/h 15.6 km/h 46 % 0 mm
20:15 -7.8 °C -14.2 °C 34496.6 hPa SSW 16.1 km/h 16.1 km/h 47 % 0 mm
20:20 -7.9 °C -14.3 °C 34496.6 hPa SSW 11.9 km/h 12.7 km/h 47 % 0 mm
20:30 -8.2 °C -14.2 °C 34496.6 hPa West 20.9 km/h 20.9 km/h 49 % 0 mm
20:35 -8.2 °C -14.2 °C 34496.6 hPa SW 22.5 km/h 22.5 km/h 49 % 0 mm
20:40 -8.4 °C -14.1 °C 34496.6 hPa WSW 20.9 km/h 20.9 km/h 51 % 0 mm
20:45 -8.5 °C -14 °C 34496.6 hPa SW 17.9 km/h 17.9 km/h 52 % 0 mm
20:50 -8.6 °C -14.1 °C 34496.6 hPa SSW 15.3 km/h 15.3 km/h 52 % 0 mm
20:55 -8.7 °C -14 °C 34533.8 hPa WSW 15 km/h 15 km/h 53 % 0 mm
21:00 -8.8 °C -14.1 °C 34533.8 hPa WSW 14.5 km/h 14.5 km/h 53 % 0 mm
21:05 -8.8 °C -14.2 °C 34533.8 hPa West 10.3 km/h 10.3 km/h 53 % 0 mm
21:10 -8.9 °C -14.1 °C 34496.6 hPa SW 9 km/h 9 km/h 54 % 0 mm
21:15 -8.9 °C -14.1 °C 34496.6 hPa SE 3.1 km/h   54 % 0 mm
21:20 -9 °C -14.2 °C 34496.6 hPa West 6 km/h 6 km/h 54 % 0 mm
21:25 -9.1 °C -14.3 °C 34533.8 hPa WSW 4.2 km/h   54 % 0 mm
21:30 -9.1 °C -14.1 °C 34533.8 hPa SW 3.1 km/h   55 % 0 mm
21:35 -9.2 °C -14.2 °C 34533.8 hPa WNW 4.2 km/h 4.2 km/h 55 % 0 mm
21:40 -9.2 °C -14.2 °C 34533.8 hPa North 3.7 km/h   55 % 0 mm
21:45 -9.2 °C -14.2 °C 34533.8 hPa ENE 3.7 km/h 4.2 km/h 55 % 0 mm
21:50 -9.2 °C -14.2 °C 34533.8 hPa ENE 3.7 km/h 3.7 km/h 55 % 0 mm
21:55 -9.3 °C -14.1 °C 34533.8 hPa ENE 3.1 km/h   56 % 0 mm
22:00 -9.3 °C -14.3 °C 34533.8 hPa ENE 2.3 km/h   55 % 0 mm
22:05 -9.3 °C -14.3 °C 34533.8 hPa ENE 3.1 km/h   55 % 0 mm
22:10 -9.3 °C -14.3 °C 34533.8 hPa ENE 6 km/h 6 km/h 55 % 0 mm
22:15 -9.3 °C -14.2 °C 34533.8 hPa Calm     56 % 0 mm
22:20 -9.4 °C -14.2 °C 34533.8 hPa Calm     56 % 0 mm
22:25 -9.4 °C -14.1 °C 34533.8 hPa Calm   2.6 km/h 57 % 0 mm
22:30 -9.4 °C -14.3 °C 34533.8 hPa ENE 4.2 km/h 4.2 km/h 56 % 0 mm
22:35 -9.6 °C -14.3 °C 34533.8 hPa Calm     57 % 0 mm
22:40 -9.6 °C -14.2 °C 34496.6 hPa Calm     58 % 0 mm
22:45 -9.6 °C -14 °C 34496.6 hPa ENE 2.6 km/h 5.1 km/h 59 % 0 mm
22:50 -9.6 °C -13.7 °C 34496.6 hPa ENE 6 km/h 6 km/h 61 % 0 mm
22:55 -9.6 °C -13.6 °C 34533.8 hPa ENE 6 km/h 6 km/h 62 % 0 mm
23:00 -9.6 °C -13.5 °C 34533.8 hPa Calm   5.1 km/h 63 % 0 mm
23:05 -9.7 °C -13.8 °C 34533.8 hPa SSE 2.6 km/h 5.1 km/h 61 % 0 mm
23:10 -9.7 °C -13.7 °C 34533.8 hPa WSW 3.1 km/h   62 % 0 mm
23:15 -9.8 °C -13.7 °C 34533.8 hPa WSW 3.1 km/h   63 % 0 mm
23:20 -9.8 °C -13.8 °C 34533.8 hPa West 3.7 km/h   62 % 0 mm
23:25 -9.8 °C -13.9 °C 34533.8 hPa West 2.6 km/h 5.1 km/h 61 % 0 mm
23:30 -12.2 °C -14.3 °C 34462.7 hPa SW 5.1 km/h 7.7 km/h 77 % 0 mm
23:35 -10 °C -14 °C 34533.8 hPa SW 2.6 km/h 7.7 km/h 62 % 0 mm
23:40 -10.1 °C -14.1 °C 34533.8 hPa WSW 5.1 km/h 7.7 km/h 62 % 0 mm
23:45 -10.1 °C -13.9 °C 34533.8 hPa WSW 2.6 km/h 5.1 km/h 63 % 0 mm
23:50 -10.2 °C -14 °C 34533.8 hPa WSW 5.1 km/h 7.7 km/h 63 % 0 mm
23:55 -10.2 °C -13.9 °C 34533.8 hPa WSW 5.1 km/h 7.7 km/h 64 % 0 mm
Meteo Sesrovires
Elogis d' Weather Underground - 1.5 mb

Guio original per  Jim McMurry - jmcmurry@mwt.net Adaptat per a la plantilla per  Wim van der Kuil - Leuven-Template.eu

Trobareu la nostra informacio del temps tambe a:

Weather Underground

AWEKAS